createdAt,value
2022-09-28T14:19:35.321Z,21.05
2022-09-28T14:24:49.304Z,20.98
2022-09-28T14:29:55.595Z,20.52
2022-09-28T14:34:59.852Z,20.22
2022-09-28T14:40:45.861Z,19.92
2022-09-28T14:46:11.678Z,20.13
2022-09-28T14:51:26.449Z,19.99
2022-09-28T14:56:32.846Z,20.11
2022-09-28T15:01:36.631Z,20.01
2022-09-28T15:06:48.894Z,19.88
2022-09-28T15:12:04.270Z,20.23
2022-09-28T15:17:11.285Z,19.91
2022-09-28T15:22:17.288Z,19.60
2022-09-28T15:32:36.210Z,19.67
2022-09-28T15:37:40.666Z,19.57
2022-09-28T15:42:45.359Z,19.40
2022-09-28T15:47:48.299Z,19.14
2022-09-28T15:53:00.495Z,19.34
2022-09-28T15:58:06.106Z,19.13
2022-09-28T16:03:09.514Z,19.01
2022-09-28T16:08:20.013Z,19.05
2022-09-28T16:13:24.178Z,19.11
2022-09-28T16:18:39.048Z,19.17
2022-09-28T16:23:43.605Z,18.93
2022-09-28T16:28:50.409Z,19.25
2022-09-28T16:33:54.169Z,18.89
2022-09-28T16:38:56.557Z,18.85
2022-09-28T16:44:04.937Z,18.88
2022-09-28T16:49:13.030Z,18.97
2022-09-28T16:54:38.237Z,19.06
2022-09-28T16:59:40.830Z,19.53
2022-09-28T17:04:47.515Z,19.54
2022-09-28T17:09:50.001Z,19.54
2022-09-28T17:14:57.717Z,19.61
2022-09-28T17:20:07.518Z,19.68
2022-09-28T17:25:16.151Z,19.58
2022-09-28T17:30:20.290Z,19.70
2022-09-28T17:35:25.920Z,19.41
2022-09-28T17:40:31.166Z,19.33
2022-09-28T17:45:39.131Z,19.36
2022-09-28T17:50:46.276Z,19.06
2022-09-28T17:55:49.182Z,18.86
2022-09-28T18:00:53.341Z,18.69
2022-09-28T18:06:01.597Z,18.91
2022-09-28T18:11:03.964Z,18.77
2022-09-28T18:16:09.751Z,18.72
2022-09-28T18:21:13.661Z,18.57
2022-09-28T18:26:20.640Z,18.37
2022-09-28T18:31:23.030Z,18.47
2022-09-28T18:36:32.643Z,18.33
2022-09-28T18:41:35.599Z,18.38
2022-09-28T18:46:43.201Z,18.02
2022-09-28T18:51:46.131Z,18.17
2022-09-28T18:56:50.495Z,18.45
2022-09-28T19:01:53.104Z,18.22
2022-09-28T19:07:00.988Z,18.27
2022-09-28T19:12:05.511Z,18.03
2022-09-28T19:17:16.526Z,18.17
2022-09-28T19:22:18.782Z,18.02
2022-09-28T19:27:22.636Z,18.01
2022-09-28T19:32:30.615Z,18.03
2022-09-28T19:37:44.422Z,17.92
2022-09-28T19:42:46.616Z,17.94
2022-09-28T19:47:50.620Z,17.91
2022-09-28T19:53:02.651Z,18.06
2022-09-28T19:58:05.106Z,18.00
2022-09-28T20:03:09.312Z,17.90
2022-09-28T20:08:16.684Z,17.91
2022-09-28T20:13:23.664Z,17.96
2022-09-28T20:18:27.609Z,17.84
2022-09-28T20:23:29.886Z,17.89
2022-09-28T20:28:36.705Z,17.91
2022-09-28T20:33:44.748Z,17.89
2022-09-28T20:38:52.440Z,17.93
2022-09-28T20:44:06.898Z,17.97
2022-09-28T20:49:11.456Z,17.88
2022-09-28T20:54:13.814Z,17.73
2022-09-28T20:59:16.648Z,18.02
2022-09-28T21:04:27.177Z,17.83
2022-09-28T21:09:32.131Z,18.10
2022-09-28T21:14:34.401Z,17.95
2022-09-28T21:19:37.939Z,17.65
2022-09-28T21:24:42.856Z,17.44
2022-09-28T21:29:45.061Z,17.40
2022-09-28T21:34:47.274Z,17.28
2022-09-28T21:39:56.949Z,17.40
2022-09-28T21:44:59.616Z,17.25
2022-09-28T21:50:04.652Z,17.32
2022-09-28T21:55:07.195Z,17.10
2022-09-28T22:00:10.674Z,17.36
2022-09-28T22:05:13.140Z,17.48
2022-09-28T22:10:15.488Z,17.21
2022-09-28T22:15:17.706Z,17.27
2022-09-28T22:20:20.017Z,17.39
2022-09-28T22:25:22.338Z,17.50
2022-09-28T22:30:25.151Z,17.50
2022-09-28T22:35:27.413Z,17.39
2022-09-28T22:40:29.715Z,17.46
2022-09-28T22:45:34.223Z,17.55
2022-09-28T22:50:39.106Z,17.41
2022-09-28T22:55:42.083Z,17.45
2022-09-28T23:00:46.488Z,17.67
2022-09-28T23:06:03.273Z,17.50
2022-09-28T23:11:07.665Z,17.57
2022-09-28T23:16:21.611Z,17.51
2022-09-28T23:21:25.307Z,17.73
2022-09-28T23:26:39.391Z,17.51
2022-09-28T23:31:45.580Z,17.42
2022-09-28T23:36:48.739Z,17.32
2022-09-28T23:41:51.594Z,17.32
2022-09-28T23:47:03.286Z,17.65
2022-09-28T23:52:07.860Z,17.30
2022-09-28T23:57:10.319Z,17.28
